sensor_id;sensor_type;location;lat;lon;timestamp;temperature;humidity
30473;DHT22;17263;48.160;11.452;2022-07-29T00:00:09;20.20;99.90
30473;DHT22;17263;48.160;11.452;2022-07-29T00:02:36;20.20;99.90
30473;DHT22;17263;48.160;11.452;2022-07-29T00:05:03;20.10;99.90
30473;DHT22;17263;48.160;11.452;2022-07-29T00:07:29;20.10;99.90
30473;DHT22;17263;48.160;11.452;2022-07-29T00:09:55;20.10;99.90
30473;DHT22;17263;48.160;11.452;2022-07-29T00:12:23;20.20;99.90
30473;DHT22;17263;48.160;11.452;2022-07-29T00:14:49;20.10;99.90
30473;DHT22;17263;48.160;11.452;2022-07-29T00:17:15;20.10;99.90
30473;DHT22;17263;48.160;11.452;2022-07-29T00:19:41;20.00;99.90
30473;DHT22;17263;48.160;11.452;2022-07-29T00:22:07;20.00;99.90
30473;DHT22;17263;48.160;11.452;2022-07-29T00:24:33;20.00;99.90
30473;DHT22;17263;48.160;11.452;2022-07-29T00:26:59;19.90;99.90
30473;DHT22;17263;48.160;11.452;2022-07-29T00:29:25;19.90;99.90
30473;DHT22;17263;48.160;11.452;2022-07-29T00:31:51;19.90;99.90
30473;DHT22;17263;48.160;11.452;2022-07-29T00:34:17;19.90;99.90
30473;DHT22;17263;48.160;11.452;2022-07-29T00:37:02;19.90;99.90
30473;DHT22;17263;48.160;11.452;2022-07-29T00:39:29;19.90;99.90
30473;DHT22;17263;48.160;11.452;2022-07-29T00:41:55;19.90;99.90
30473;DHT22;17263;48.160;11.452;2022-07-29T00:44:21;19.90;99.90
30473;DHT22;17263;48.160;11.452;2022-07-29T00:46:47;19.80;99.90
30473;DHT22;17263;48.160;11.452;2022-07-29T00:49:13;19.80;99.90
30473;DHT22;17263;48.160;11.452;2022-07-29T00:51:39;19.90;99.90
30473;DHT22;17263;48.160;11.452;2022-07-29T00:54:07;19.90;99.90
30473;DHT22;17263;48.160;11.452;2022-07-29T00:56:33;19.80;99.90
30473;DHT22;17263;48.160;11.452;2022-07-29T00:59:00;19.80;99.90
30473;DHT22;17263;48.160;11.452;2022-07-29T01:01:26;19.80;99.90
30473;DHT22;17263;48.160;11.452;2022-07-29T01:03:54;19.80;99.90
30473;DHT22;17263;48.160;11.452;2022-07-29T01:06:20;19.80;99.90
30473;DHT22;17263;48.160;11.452;2022-07-29T01:08:47;19.80;99.90
30473;DHT22;17263;48.160;11.452;2022-07-29T01:11:15;19.80;99.90
30473;DHT22;17263;48.160;11.452;2022-07-29T01:13:43;19.80;99.90
30473;DHT22;17263;48.160;11.452;2022-07-29T01:16:14;19.80;99.90
30473;DHT22;17263;48.160;11.452;2022-07-29T01:18:44;19.80;99.90
30473;DHT22;17263;48.160;11.452;2022-07-29T01:21:23;19.90;99.90
30473;DHT22;17263;48.160;11.452;2022-07-29T01:24:24;19.80;99.90
30473;DHT22;17263;48.160;11.452;2022-07-29T01:27:01;19.80;99.90
30473;DHT22;17263;48.160;11.452;2022-07-29T01:29:33;19.80;99.90
30473;DHT22;17263;48.160;11.452;2022-07-29T01:32:17;19.80;99.90
30473;DHT22;17263;48.160;11.452;2022-07-29T01:34:48;19.80;99.90
30473;DHT22;17263;48.160;11.452;2022-07-29T01:39:56;19.80;99.90
30473;DHT22;17263;48.160;11.452;2022-07-29T01:50:35;19.70;99.90
30473;DHT22;17263;48.160;11.452;2022-07-29T01:53:09;19.70;99.90
30473;DHT22;17263;48.160;11.452;2022-07-29T01:55:39;19.70;99.90
30473;DHT22;17263;48.160;11.452;2022-07-29T01:58:06;19.60;99.90
30473;DHT22;17263;48.160;11.452;2022-07-29T02:00:34;19.60;99.90
30473;DHT22;17263;48.160;11.452;2022-07-29T02:03:04;19.60;99.90
30473;DHT22;17263;48.160;11.452;2022-07-29T02:05:32;19.60;99.90
30473;DHT22;17263;48.160;11.452;2022-07-29T02:08:00;19.60;99.90
30473;DHT22;17263;48.160;11.452;2022-07-29T02:10:28;19.60;99.90
30473;DHT22;17263;48.160;11.452;2022-07-29T02:12:57;19.60;99.90
30473;DHT22;17263;48.160;11.452;2022-07-29T02:15:28;19.50;99.90
30473;DHT22;17263;48.160;11.452;2022-07-29T02:18:15;19.60;99.90
30473;DHT22;17263;48.160;11.452;2022-07-29T02:20:45;19.60;99.90
30473;DHT22;17263;48.160;11.452;2022-07-29T02:23:15;19.60;99.90
30473;DHT22;17263;48.160;11.452;2022-07-29T02:25:42;19.50;99.90
30473;DHT22;17263;48.160;11.452;2022-07-29T02:28:09;19.50;99.90
30473;DHT22;17263;48.160;11.452;2022-07-29T02:30:39;19.40;99.90
30473;DHT22;17263;48.160;11.452;2022-07-29T02:33:07;19.40;99.90
30473;DHT22;17263;48.160;11.452;2022-07-29T02:35:34;19.40;99.90
30473;DHT22;17263;48.160;11.452;2022-07-29T02:38:01;19.40;99.90
30473;DHT22;17263;48.160;11.452;2022-07-29T02:40:46;19.40;99.90
30473;DHT22;17263;48.160;11.452;2022-07-29T02:43:14;19.30;99.90
30473;DHT22;17263;48.160;11.452;2022-07-29T02:45:41;19.40;99.90
30473;DHT22;17263;48.160;11.452;2022-07-29T02:48:12;19.30;99.90
30473;DHT22;17263;48.160;11.452;2022-07-29T02:50:45;19.30;99.90
30473;DHT22;17263;48.160;11.452;2022-07-29T02:53:17;19.30;99.90
30473;DHT22;17263;48.160;11.452;2022-07-29T02:55:51;19.20;99.90
30473;DHT22;17263;48.160;11.452;2022-07-29T02:58:25;19.20;99.90
30473;DHT22;17263;48.160;11.452;2022-07-29T03:00:57;19.10;99.90
30473;DHT22;17263;48.160;11.452;2022-07-29T03:03:29;19.10;99.90
30473;DHT22;17263;48.160;11.452;2022-07-29T03:05:56;19.00;99.90
30473;DHT22;17263;48.160;11.452;2022-07-29T03:08:24;19.00;99.90
30473;DHT22;17263;48.160;11.452;2022-07-29T03:10:51;18.90;99.90
30473;DHT22;17263;48.160;11.452;2022-07-29T03:13:18;18.90;99.90
30473;DHT22;17263;48.160;11.452;2022-07-29T03:15:45;18.90;99.90
30473;DHT22;17263;48.160;11.452;2022-07-29T03:18:12;18.80;99.90
30473;DHT22;17263;48.160;11.452;2022-07-29T03:20:38;18.70;99.90
30473;DHT22;17263;48.160;11.452;2022-07-29T03:23:05;18.70;99.90
30473;DHT22;17263;48.160;11.452;2022-07-29T03:25:31;18.60;99.90
30473;DHT22;17263;48.160;11.452;2022-07-29T03:27:57;18.50;99.90
30473;DHT22;17263;48.160;11.452;2022-07-29T03:30:23;18.40;99.90
30473;DHT22;17263;48.160;11.452;2022-07-29T03:32:50;18.40;99.90
30473;DHT22;17263;48.160;11.452;2022-07-29T03:35:16;18.30;99.90
30473;DHT22;17263;48.160;11.452;2022-07-29T03:37:43;18.30;99.90
30473;DHT22;17263;48.160;11.452;2022-07-29T03:40:11;18.30;99.90
30473;DHT22;17263;48.160;11.452;2022-07-29T03:42:42;18.30;99.90
30473;DHT22;17263;48.160;11.452;2022-07-29T03:45:10;18.30;99.90
30473;DHT22;17263;48.160;11.452;2022-07-29T03:47:42;18.10;99.90
30473;DHT22;17263;48.160;11.452;2022-07-29T03:50:11;18.10;99.90
30473;DHT22;17263;48.160;11.452;2022-07-29T03:52:39;18.10;99.90
30473;DHT22;17263;48.160;11.452;2022-07-29T03:55:07;18.10;99.90
30473;DHT22;17263;48.160;11.452;2022-07-29T03:57:34;18.10;99.90
30473;DHT22;17263;48.160;11.452;2022-07-29T04:00:03;18.10;99.90
30473;DHT22;17263;48.160;11.452;2022-07-29T04:02:32;18.10;99.90
30473;DHT22;17263;48.160;11.452;2022-07-29T04:04:58;18.10;99.90
30473;DHT22;17263;48.160;11.452;2022-07-29T04:07:24;18.10;99.90
30473;DHT22;17263;48.160;11.452;2022-07-29T04:09:50;18.10;99.90
30473;DHT22;17263;48.160;11.452;2022-07-29T04:12:16;18.00;99.90
30473;DHT22;17263;48.160;11.452;2022-07-29T04:14:43;18.10;99.90
30473;DHT22;17263;48.160;11.452;2022-07-29T04:17:09;18.10;99.90
30473;DHT22;17263;48.160;11.452;2022-07-29T04:19:35;18.20;99.90
30473;DHT22;17263;48.160;11.452;2022-07-29T04:22:01;18.20;99.90
30473;DHT22;17263;48.160;11.452;2022-07-29T04:24:27;18.30;99.90
30473;DHT22;17263;48.160;11.452;2022-07-29T04:26:54;18.30;99.90
30473;DHT22;17263;48.160;11.452;2022-07-29T04:29:20;18.50;99.90
30473;DHT22;17263;48.160;11.452;2022-07-29T04:31:46;18.60;99.90
30473;DHT22;17263;48.160;11.452;2022-07-29T04:34:12;18.70;99.90
30473;DHT22;17263;48.160;11.452;2022-07-29T04:36:38;18.80;99.90
30473;DHT22;17263;48.160;11.452;2022-07-29T04:39:04;18.90;99.90
30473;DHT22;17263;48.160;11.452;2022-07-29T04:41:30;19.10;99.90
30473;DHT22;17263;48.160;11.452;2022-07-29T04:43:57;19.20;99.90
30473;DHT22;17263;48.160;11.452;2022-07-29T04:46:23;19.30;99.90
30473;DHT22;17263;48.160;11.452;2022-07-29T04:48:49;19.40;99.90
30473;DHT22;17263;48.160;11.452;2022-07-29T04:51:15;19.40;99.90
30473;DHT22;17263;48.160;11.452;2022-07-29T04:53:41;19.60;99.90
30473;DHT22;17263;48.160;11.452;2022-07-29T04:56:07;19.70;99.90
30473;DHT22;17263;48.160;11.452;2022-07-29T04:58:36;19.90;99.90
30473;DHT22;17263;48.160;11.452;2022-07-29T05:01:03;20.40;99.90
30473;DHT22;17263;48.160;11.452;2022-07-29T05:03:29;20.70;99.90
30473;DHT22;17263;48.160;11.452;2022-07-29T05:05:55;20.80;99.90
30473;DHT22;17263;48.160;11.452;2022-07-29T05:08:22;20.70;99.90
30473;DHT22;17263;48.160;11.452;2022-07-29T05:10:48;20.60;99.90
30473;DHT22;17263;48.160;11.452;2022-07-29T05:13:14;20.60;99.90
30473;DHT22;17263;48.160;11.452;2022-07-29T05:15:40;20.90;99.90
30473;DHT22;17263;48.160;11.452;2022-07-29T05:18:06;21.60;99.90
30473;DHT22;17263;48.160;11.452;2022-07-29T05:20:32;22.50;99.90
30473;DHT22;17263;48.160;11.452;2022-07-29T05:23:00;23.30;99.90
30473;DHT22;17263;48.160;11.452;2022-07-29T05:25:28;23.80;99.90
30473;DHT22;17263;48.160;11.452;2022-07-29T05:27:54;24.40;99.90
30473;DHT22;17263;48.160;11.452;2022-07-29T05:30:21;24.90;99.90
30473;DHT22;17263;48.160;11.452;2022-07-29T05:32:47;25.20;99.90
30473;DHT22;17263;48.160;11.452;2022-07-29T05:35:14;25.60;99.90
30473;DHT22;17263;48.160;11.452;2022-07-29T05:37:40;25.90;99.90
30473;DHT22;17263;48.160;11.452;2022-07-29T05:40:07;25.90;99.90
30473;DHT22;17263;48.160;11.452;2022-07-29T05:42:34;25.90;99.90
30473;DHT22;17263;48.160;11.452;2022-07-29T05:45:01;25.60;99.90
30473;DHT22;17263;48.160;11.452;2022-07-29T05:47:27;25.70;99.90
30473;DHT22;17263;48.160;11.452;2022-07-29T05:49:53;25.70;99.90
30473;DHT22;17263;48.160;11.452;2022-07-29T05:52:20;26.40;99.90
30473;DHT22;17263;48.160;11.452;2022-07-29T05:54:46;27.00;99.90
30473;DHT22;17263;48.160;11.452;2022-07-29T05:57:19;27.50;99.90
30473;DHT22;17263;48.160;11.452;2022-07-29T05:59:46;27.50;99.90
30473;DHT22;17263;48.160;11.452;2022-07-29T06:02:13;28.00;99.00
30473;DHT22;17263;48.160;11.452;2022-07-29T06:04:39;28.60;97.80
30473;DHT22;17263;48.160;11.452;2022-07-29T06:07:05;28.90;96.60
30473;DHT22;17263;48.160;11.452;2022-07-29T06:09:32;29.00;95.80
30473;DHT22;17263;48.160;11.452;2022-07-29T06:11:58;29.10;94.50
30473;DHT22;17263;48.160;11.452;2022-07-29T06:14:25;29.10;93.80
30473;DHT22;17263;48.160;11.452;2022-07-29T06:16:52;29.00;94.20
30473;DHT22;17263;48.160;11.452;2022-07-29T06:19:18;29.10;92.80
30473;DHT22;17263;48.160;11.452;2022-07-29T06:21:45;29.40;90.80
30473;DHT22;17263;48.160;11.452;2022-07-29T06:24:13;29.80;90.10
30473;DHT22;17263;48.160;11.452;2022-07-29T06:26:40;29.90;86.40
30473;DHT22;17263;48.160;11.452;2022-07-29T06:29:06;29.80;86.10
30473;DHT22;17263;48.160;11.452;2022-07-29T06:31:32;29.50;86.70
30473;DHT22;17263;48.160;11.452;2022-07-29T06:33:58;29.50;86.70
30473;DHT22;17263;48.160;11.452;2022-07-29T06:36:25;30.00;86.30
30473;DHT22;17263;48.160;11.452;2022-07-29T06:38:51;30.30;85.80
30473;DHT22;17263;48.160;11.452;2022-07-29T06:41:17;30.80;83.20
30473;DHT22;17263;48.160;11.452;2022-07-29T06:43:45;31.00;81.60
30473;DHT22;17263;48.160;11.452;2022-07-29T06:46:16;31.50;80.40
30473;DHT22;17263;48.160;11.452;2022-07-29T06:48:45;31.90;77.20
30473;DHT22;17263;48.160;11.452;2022-07-29T06:51:11;32.30;73.70
30473;DHT22;17263;48.160;11.452;2022-07-29T06:53:38;32.30;73.20
30473;DHT22;17263;48.160;11.452;2022-07-29T06:56:06;32.60;72.50
30473;DHT22;17263;48.160;11.452;2022-07-29T06:58:35;32.90;69.50
30473;DHT22;17263;48.160;11.452;2022-07-29T07:01:04;33.00;69.00
30473;DHT22;17263;48.160;11.452;2022-07-29T07:03:30;32.80;67.80
30473;DHT22;17263;48.160;11.452;2022-07-29T07:05:56;32.70;67.10
30473;DHT22;17263;48.160;11.452;2022-07-29T07:08:23;32.50;68.80
30473;DHT22;17263;48.160;11.452;2022-07-29T07:10:52;32.80;68.50
30473;DHT22;17263;48.160;11.452;2022-07-29T07:13:19;32.90;66.20
30473;DHT22;17263;48.160;11.452;2022-07-29T07:15:45;33.10;65.80
30473;DHT22;17263;48.160;11.452;2022-07-29T07:18:14;33.10;64.20
30473;DHT22;17263;48.160;11.452;2022-07-29T07:20:41;32.90;63.50
30473;DHT22;17263;48.160;11.452;2022-07-29T07:23:07;33.10;63.40
30473;DHT22;17263;48.160;11.452;2022-07-29T07:25:34;33.20;61.30
30473;DHT22;17263;48.160;11.452;2022-07-29T07:28:01;33.00;60.70
30473;DHT22;17263;48.160;11.452;2022-07-29T07:30:27;32.60;60.40
30473;DHT22;17263;48.160;11.452;2022-07-29T07:32:54;32.20;61.40
30473;DHT22;17263;48.160;11.452;2022-07-29T07:35:21;32.40;60.10
30473;DHT22;17263;48.160;11.452;2022-07-29T07:37:47;32.30;60.90
30473;DHT22;17263;48.160;11.452;2022-07-29T07:40:14;32.70;59.90
30473;DHT22;17263;48.160;11.452;2022-07-29T07:42:41;33.00;59.30
30473;DHT22;17263;48.160;11.452;2022-07-29T07:45:08;33.20;58.50
30473;DHT22;17263;48.160;11.452;2022-07-29T07:47:38;33.20;58.00
30473;DHT22;17263;48.160;11.452;2022-07-29T07:50:10;33.40;56.90
30473;DHT22;17263;48.160;11.452;2022-07-29T07:52:46;33.30;56.90
30473;DHT22;17263;48.160;11.452;2022-07-29T07:55:13;33.50;56.60
30473;DHT22;17263;48.160;11.452;2022-07-29T07:57:39;33.60;56.50
30473;DHT22;17263;48.160;11.452;2022-07-29T08:00:06;33.30;56.90
30473;DHT22;17263;48.160;11.452;2022-07-29T08:02:32;33.20;57.60
30473;DHT22;17263;48.160;11.452;2022-07-29T08:04:58;33.20;57.30
30473;DHT22;17263;48.160;11.452;2022-07-29T08:07:25;33.20;57.40
30473;DHT22;17263;48.160;11.452;2022-07-29T08:09:51;33.50;57.60
30473;DHT22;17263;48.160;11.452;2022-07-29T08:12:18;33.20;57.10
30473;DHT22;17263;48.160;11.452;2022-07-29T08:14:44;33.50;57.70
30473;DHT22;17263;48.160;11.452;2022-07-29T08:17:10;33.40;57.50
30473;DHT22;17263;48.160;11.452;2022-07-29T08:19:36;33.20;57.80
30473;DHT22;17263;48.160;11.452;2022-07-29T08:22:03;33.20;58.20
30473;DHT22;17263;48.160;11.452;2022-07-29T08:24:29;33.40;57.20
30473;DHT22;17263;48.160;11.452;2022-07-29T08:27:18;33.50;57.20
30473;DHT22;17263;48.160;11.452;2022-07-29T08:29:45;33.80;57.00
30473;DHT22;17263;48.160;11.452;2022-07-29T08:32:11;34.10;56.80
30473;DHT22;17263;48.160;11.452;2022-07-29T08:34:37;34.40;56.30
30473;DHT22;17263;48.160;11.452;2022-07-29T08:37:03;34.50;54.70
30473;DHT22;17263;48.160;11.452;2022-07-29T08:39:29;34.40;55.30
30473;DHT22;17263;48.160;11.452;2022-07-29T08:41:55;33.50;55.80
30473;DHT22;17263;48.160;11.452;2022-07-29T08:44:21;33.00;56.30
30473;DHT22;17263;48.160;11.452;2022-07-29T08:46:48;32.50;57.80
30473;DHT22;17263;48.160;11.452;2022-07-29T08:49:16;32.00;58.80
30473;DHT22;17263;48.160;11.452;2022-07-29T08:51:43;31.30;59.80
30473;DHT22;17263;48.160;11.452;2022-07-29T08:54:11;31.00;61.80
30473;DHT22;17263;48.160;11.452;2022-07-29T08:56:41;30.40;62.60
30473;DHT22;17263;48.160;11.452;2022-07-29T08:59:08;30.10;64.00
30473;DHT22;17263;48.160;11.452;2022-07-29T09:01:37;29.80;65.80
30473;DHT22;17263;48.160;11.452;2022-07-29T09:04:04;29.60;67.00
30473;DHT22;17263;48.160;11.452;2022-07-29T09:06:32;29.50;67.50
30473;DHT22;17263;48.160;11.452;2022-07-29T09:09:00;29.50;68.50
30473;DHT22;17263;48.160;11.452;2022-07-29T09:11:27;29.70;68.00
30473;DHT22;17263;48.160;11.452;2022-07-29T09:13:54;29.80;67.00
30473;DHT22;17263;48.160;11.452;2022-07-29T09:16:20;30.00;65.90
30473;DHT22;17263;48.160;11.452;2022-07-29T09:18:46;30.20;66.40
30473;DHT22;17263;48.160;11.452;2022-07-29T09:21:14;30.30;66.00
30473;DHT22;17263;48.160;11.452;2022-07-29T09:24:12;30.30;65.50
30473;DHT22;17263;48.160;11.452;2022-07-29T09:26:43;30.40;65.20
30473;DHT22;17263;48.160;11.452;2022-07-29T09:29:11;30.40;65.60
30473;DHT22;17263;48.160;11.452;2022-07-29T09:31:40;30.30;64.50
30473;DHT22;17263;48.160;11.452;2022-07-29T09:34:07;30.20;65.50
30473;DHT22;17263;48.160;11.452;2022-07-29T09:36:42;30.10;65.70
30473;DHT22;17263;48.160;11.452;2022-07-29T09:39:09;29.80;65.60
30473;DHT22;17263;48.160;11.452;2022-07-29T09:41:51;29.40;66.80
30473;DHT22;17263;48.160;11.452;2022-07-29T09:44:21;29.10;68.10
30473;DHT22;17263;48.160;11.452;2022-07-29T09:47:01;28.80;69.60
30473;DHT22;17263;48.160;11.452;2022-07-29T09:49:50;28.40;69.90
30473;DHT22;17263;48.160;11.452;2022-07-29T09:52:16;28.20;72.00
30473;DHT22;17263;48.160;11.452;2022-07-29T09:54:42;28.10;72.50
30473;DHT22;17263;48.160;11.452;2022-07-29T09:57:21;28.00;73.30
30473;DHT22;17263;48.160;11.452;2022-07-29T10:00:02;28.00;73.30
30473;DHT22;17263;48.160;11.452;2022-07-29T10:02:30;27.90;73.90
30473;DHT22;17263;48.160;11.452;2022-07-29T10:04:59;27.80;73.70
30473;DHT22;17263;48.160;11.452;2022-07-29T10:07:25;27.80;73.40
30473;DHT22;17263;48.160;11.452;2022-07-29T10:09:56;27.80;73.60
30473;DHT22;17263;48.160;11.452;2022-07-29T10:12:23;27.90;74.70
30473;DHT22;17263;48.160;11.452;2022-07-29T10:14:50;28.10;74.00
30473;DHT22;17263;48.160;11.452;2022-07-29T10:17:17;28.20;73.90
30473;DHT22;17263;48.160;11.452;2022-07-29T10:19:44;28.30;72.80
30473;DHT22;17263;48.160;11.452;2022-07-29T10:22:11;28.20;73.80
30473;DHT22;17263;48.160;11.452;2022-07-29T10:24:38;28.30;73.50
30473;DHT22;17263;48.160;11.452;2022-07-29T10:27:06;28.30;73.80
30473;DHT22;17263;48.160;11.452;2022-07-29T10:29:33;28.30;74.70
30473;DHT22;17263;48.160;11.452;2022-07-29T10:35:29;28.30;74.50
30473;DHT22;17263;48.160;11.452;2022-07-29T10:38:18;28.40;73.40
30473;DHT22;17263;48.160;11.452;2022-07-29T10:41:11;28.70;73.40
30473;DHT22;17263;48.160;11.452;2022-07-29T10:44:06;28.90;73.60
30473;DHT22;17263;48.160;11.452;2022-07-29T10:46:38;29.00;72.50
30473;DHT22;17263;48.160;11.452;2022-07-29T10:49:08;29.00;72.00
30473;DHT22;17263;48.160;11.452;2022-07-29T10:51:57;29.00;72.20
30473;DHT22;17263;48.160;11.452;2022-07-29T11:05:00;28.80;72.20
30473;DHT22;17263;48.160;11.452;2022-07-29T11:07:27;28.80;72.10
30473;DHT22;17263;48.160;11.452;2022-07-29T11:15:14;28.60;69.70
30473;DHT22;17263;48.160;11.452;2022-07-29T11:28:46;28.20;69.00
30473;DHT22;17263;48.160;11.452;2022-07-29T11:31:16;28.20;67.50
30473;DHT22;17263;48.160;11.452;2022-07-29T11:33:45;28.20;67.10
30473;DHT22;17263;48.160;11.452;2022-07-29T11:36:13;28.30;65.90
30473;DHT22;17263;48.160;11.452;2022-07-29T11:38:39;28.50;66.10
30473;DHT22;17263;48.160;11.452;2022-07-29T11:41:21;28.60;67.20
30473;DHT22;17263;48.160;11.452;2022-07-29T11:46:49;28.50;66.60
30473;DHT22;17263;48.160;11.452;2022-07-29T11:49:20;28.40;67.00
30473;DHT22;17263;48.160;11.452;2022-07-29T11:51:54;28.30;67.90
30473;DHT22;17263;48.160;11.452;2022-07-29T11:54:32;28.20;68.10
30473;DHT22;17263;48.160;11.452;2022-07-29T11:56:59;28.20;67.90
30473;DHT22;17263;48.160;11.452;2022-07-29T11:59:26;28.20;68.80
30473;DHT22;17263;48.160;11.452;2022-07-29T12:01:57;28.20;68.20
30473;DHT22;17263;48.160;11.452;2022-07-29T12:04:23;28.30;68.10
30473;DHT22;17263;48.160;11.452;2022-07-29T12:06:54;28.30;69.00
30473;DHT22;17263;48.160;11.452;2022-07-29T12:09:21;28.20;67.70
30473;DHT22;17263;48.160;11.452;2022-07-29T12:11:47;28.10;69.00
30473;DHT22;17263;48.160;11.452;2022-07-29T12:14:27;28.10;68.70
30473;DHT22;17263;48.160;11.452;2022-07-29T12:16:53;28.20;68.90
30473;DHT22;17263;48.160;11.452;2022-07-29T12:19:19;28.20;70.10
30473;DHT22;17263;48.160;11.452;2022-07-29T12:21:47;28.30;70.20
30473;DHT22;17263;48.160;11.452;2022-07-29T12:24:14;28.30;69.50
30473;DHT22;17263;48.160;11.452;2022-07-29T12:27:09;28.30;68.30
30473;DHT22;17263;48.160;11.452;2022-07-29T12:29:35;28.20;68.00
30473;DHT22;17263;48.160;11.452;2022-07-29T12:32:03;28.10;67.90
30473;DHT22;17263;48.160;11.452;2022-07-29T12:34:29;28.00;68.60
30473;DHT22;17263;48.160;11.452;2022-07-29T12:36:55;28.00;68.80
30473;DHT22;17263;48.160;11.452;2022-07-29T12:39:22;28.00;68.50
30473;DHT22;17263;48.160;11.452;2022-07-29T12:41:48;28.00;67.90
30473;DHT22;17263;48.160;11.452;2022-07-29T12:44:14;27.80;67.80
30473;DHT22;17263;48.160;11.452;2022-07-29T12:46:40;27.60;68.90
30473;DHT22;17263;48.160;11.452;2022-07-29T12:49:06;27.60;70.00
30473;DHT22;17263;48.160;11.452;2022-07-29T12:51:37;27.60;69.20
30473;DHT22;17263;48.160;11.452;2022-07-29T12:54:15;27.40;69.50
30473;DHT22;17263;48.160;11.452;2022-07-29T12:56:42;27.30;70.00
30473;DHT22;17263;48.160;11.452;2022-07-29T12:59:13;27.20;71.00
30473;DHT22;17263;48.160;11.452;2022-07-29T13:01:39;27.10;70.90
30473;DHT22;17263;48.160;11.452;2022-07-29T13:04:05;27.00;71.90
30473;DHT22;17263;48.160;11.452;2022-07-29T13:06:43;26.90;73.00
30473;DHT22;17263;48.160;11.452;2022-07-29T13:09:14;26.80;72.90
30473;DHT22;17263;48.160;11.452;2022-07-29T13:11:42;26.70;73.00
30473;DHT22;17263;48.160;11.452;2022-07-29T13:14:12;26.60;73.80
30473;DHT22;17263;48.160;11.452;2022-07-29T13:17:07;26.40;75.00
30473;DHT22;17263;48.160;11.452;2022-07-29T13:19:36;26.30;76.40
30473;DHT22;17263;48.160;11.452;2022-07-29T13:22:03;26.20;78.20
30473;DHT22;17263;48.160;11.452;2022-07-29T13:24:29;26.10;78.40
30473;DHT22;17263;48.160;11.452;2022-07-29T13:26:55;26.10;78.80
30473;DHT22;17263;48.160;11.452;2022-07-29T13:29:21;26.10;79.50
30473;DHT22;17263;48.160;11.452;2022-07-29T13:31:47;26.00;79.70
30473;DHT22;17263;48.160;11.452;2022-07-29T13:34:13;26.00;79.20
30473;DHT22;17263;48.160;11.452;2022-07-29T13:36:39;26.00;79.10
30473;DHT22;17263;48.160;11.452;2022-07-29T13:39:05;25.90;78.60
30473;DHT22;17263;48.160;11.452;2022-07-29T13:41:31;25.80;78.20
30473;DHT22;17263;48.160;11.452;2022-07-29T13:43:57;25.80;78.00
30473;DHT22;17263;48.160;11.452;2022-07-29T13:46:23;25.70;78.30
30473;DHT22;17263;48.160;11.452;2022-07-29T13:48:49;25.70;78.70
30473;DHT22;17263;48.160;11.452;2022-07-29T13:51:16;25.70;78.30
30473;DHT22;17263;48.160;11.452;2022-07-29T13:53:42;25.70;78.50
30473;DHT22;17263;48.160;11.452;2022-07-29T13:56:08;25.70;79.10
30473;DHT22;17263;48.160;11.452;2022-07-29T13:58:34;25.70;79.10
30473;DHT22;17263;48.160;11.452;2022-07-29T14:01:00;25.70;78.90
30473;DHT22;17263;48.160;11.452;2022-07-29T14:03:27;25.80;78.20
30473;DHT22;17263;48.160;11.452;2022-07-29T14:05:53;25.90;78.60
30473;DHT22;17263;48.160;11.452;2022-07-29T14:08:19;26.00;79.60
30473;DHT22;17263;48.160;11.452;2022-07-29T14:10:45;26.10;79.50
30473;DHT22;17263;48.160;11.452;2022-07-29T14:13:11;26.20;78.20
30473;DHT22;17263;48.160;11.452;2022-07-29T14:15:37;26.20;77.70
30473;DHT22;17263;48.160;11.452;2022-07-29T14:18:03;26.20;78.00
30473;DHT22;17263;48.160;11.452;2022-07-29T14:20:30;26.20;78.60
30473;DHT22;17263;48.160;11.452;2022-07-29T14:22:56;26.10;78.10
30473;DHT22;17263;48.160;11.452;2022-07-29T14:25:23;26.20;78.40
30473;DHT22;17263;48.160;11.452;2022-07-29T14:27:49;26.20;78.80
30473;DHT22;17263;48.160;11.452;2022-07-29T14:30:15;26.20;78.80
30473;DHT22;17263;48.160;11.452;2022-07-29T14:32:41;26.20;78.40
30473;DHT22;17263;48.160;11.452;2022-07-29T14:35:08;26.10;79.10
30473;DHT22;17263;48.160;11.452;2022-07-29T14:37:35;26.10;79.70
30473;DHT22;17263;48.160;11.452;2022-07-29T14:40:02;26.10;80.30
30473;DHT22;17263;48.160;11.452;2022-07-29T14:42:30;26.00;81.20
30473;DHT22;17263;48.160;11.452;2022-07-29T14:44:59;26.00;81.40
30473;DHT22;17263;48.160;11.452;2022-07-29T14:47:25;26.10;81.20
30473;DHT22;17263;48.160;11.452;2022-07-29T14:49:51;26.10;81.80
30473;DHT22;17263;48.160;11.452;2022-07-29T14:52:17;26.10;82.40
30473;DHT22;17263;48.160;11.452;2022-07-29T14:54:43;26.10;83.00
30473;DHT22;17263;48.160;11.452;2022-07-29T14:57:09;26.00;82.90
30473;DHT22;17263;48.160;11.452;2022-07-29T14:59:35;25.90;83.40
30473;DHT22;17263;48.160;11.452;2022-07-29T15:02:01;25.80;84.20
30473;DHT22;17263;48.160;11.452;2022-07-29T15:04:27;25.70;84.00
30473;DHT22;17263;48.160;11.452;2022-07-29T15:06:53;25.70;83.90
30473;DHT22;17263;48.160;11.452;2022-07-29T15:09:19;25.60;84.00
30473;DHT22;17263;48.160;11.452;2022-07-29T15:11:45;25.50;84.90
30473;DHT22;17263;48.160;11.452;2022-07-29T15:14:12;25.40;85.40
30473;DHT22;17263;48.160;11.452;2022-07-29T15:16:39;25.40;85.90
30473;DHT22;17263;48.160;11.452;2022-07-29T15:19:05;25.30;87.30
30473;DHT22;17263;48.160;11.452;2022-07-29T15:21:32;25.20;88.20
30473;DHT22;17263;48.160;11.452;2022-07-29T15:23:58;25.10;89.00
30473;DHT22;17263;48.160;11.452;2022-07-29T15:26:24;25.00;89.70
30473;DHT22;17263;48.160;11.452;2022-07-29T15:28:50;24.90;90.30
30473;DHT22;17263;48.160;11.452;2022-07-29T15:31:16;24.90;90.70
30473;DHT22;17263;48.160;11.452;2022-07-29T15:33:42;24.80;91.00
30473;DHT22;17263;48.160;11.452;2022-07-29T15:36:08;24.80;91.40
30473;DHT22;17263;48.160;11.452;2022-07-29T15:38:34;24.80;91.80
30473;DHT22;17263;48.160;11.452;2022-07-29T15:41:00;24.70;91.80
30473;DHT22;17263;48.160;11.452;2022-07-29T15:43:26;24.70;92.20
30473;DHT22;17263;48.160;11.452;2022-07-29T15:45:52;24.70;92.20
30473;DHT22;17263;48.160;11.452;2022-07-29T15:48:47;24.80;92.40
30473;DHT22;17263;48.160;11.452;2022-07-29T15:51:13;24.70;92.70
30473;DHT22;17263;48.160;11.452;2022-07-29T15:53:39;24.70;93.00
30473;DHT22;17263;48.160;11.452;2022-07-29T15:56:05;24.70;93.00
30473;DHT22;17263;48.160;11.452;2022-07-29T15:58:31;24.70;93.10
30473;DHT22;17263;48.160;11.452;2022-07-29T16:00:57;24.70;93.30
30473;DHT22;17263;48.160;11.452;2022-07-29T16:03:23;24.60;93.60
30473;DHT22;17263;48.160;11.452;2022-07-29T16:05:49;24.60;93.60